createdAt,value
2022-09-03T00:00:37.618Z,15.80
2022-09-03T00:03:16.629Z,15.70
2022-09-03T00:06:10.217Z,15.70
2022-09-03T00:08:45.769Z,15.70
2022-09-03T00:11:20.479Z,15.60
2022-09-03T00:13:57.640Z,15.60
2022-09-03T00:16:30.123Z,15.60
2022-09-03T00:19:02.091Z,15.60
2022-09-03T00:21:46.078Z,15.50
2022-09-03T00:24:18.510Z,15.50
2022-09-03T00:26:52.117Z,15.50
2022-09-03T00:29:25.846Z,15.40
2022-09-03T00:31:59.011Z,15.40
2022-09-03T00:34:39.706Z,15.40
2022-09-03T00:37:10.306Z,15.40
2022-09-03T00:39:43.059Z,15.40
2022-09-03T00:42:42.848Z,15.40
2022-09-03T00:45:13.252Z,15.40
2022-09-03T00:48:09.418Z,15.30
2022-09-03T00:51:19.124Z,15.30
2022-09-03T00:54:05.531Z,15.30
2022-09-03T00:56:39.858Z,15.30
2022-09-03T00:59:19.166Z,15.30
2022-09-03T01:02:12.660Z,15.30
2022-09-03T01:04:58.364Z,15.30
2022-09-03T01:07:44.218Z,15.30
2022-09-03T01:10:32.583Z,15.30
2022-09-03T01:13:12.236Z,15.30
2022-09-03T01:16:06.029Z,15.30
2022-09-03T01:18:49.343Z,15.30
2022-09-03T01:21:47.354Z,15.30
2022-09-03T01:24:45.358Z,15.40
2022-09-03T01:27:37.182Z,15.40
2022-09-03T01:30:07.984Z,15.40
2022-09-03T01:32:45.809Z,15.40
2022-09-03T01:35:28.450Z,15.40
2022-09-03T01:38:27.420Z,15.40
2022-09-03T01:41:46.788Z,15.50
2022-09-03T01:44:26.076Z,15.50
2022-09-03T01:47:09.145Z,15.50
2022-09-03T01:49:43.759Z,15.50
2022-09-03T01:52:26.615Z,15.50
2022-09-03T01:55:33.046Z,15.50
2022-09-03T01:58:21.823Z,15.50
2022-09-03T02:01:00.272Z,15.50
2022-09-03T02:03:40.842Z,15.60
2022-09-03T02:06:09.687Z,15.60
2022-09-03T02:08:36.909Z,15.50
2022-09-03T02:11:09.168Z,15.50
2022-09-03T02:13:41.384Z,15.50
2022-09-03T02:16:21.690Z,15.50
2022-09-03T02:18:56.404Z,15.50
2022-09-03T02:21:27.428Z,15.50
2022-09-03T02:23:54.638Z,15.40
2022-09-03T02:26:25.247Z,15.40
2022-09-03T02:28:54.556Z,15.40
2022-09-03T02:31:22.045Z,15.40
2022-09-03T02:33:51.166Z,15.40
2022-09-03T02:36:27.460Z,15.40
2022-09-03T02:38:55.177Z,15.40
2022-09-03T02:41:24.373Z,15.30
2022-09-03T02:43:57.659Z,15.30
2022-09-03T02:46:30.553Z,15.30
2022-09-03T02:48:57.859Z,15.20
2022-09-03T02:51:25.133Z,15.20
2022-09-03T02:53:54.228Z,15.20
2022-09-03T02:56:24.711Z,15.20
2022-09-03T02:58:51.941Z,15.10
2022-09-03T03:01:24.106Z,15.10
2022-09-03T03:03:51.775Z,15.10
2022-09-03T03:06:22.767Z,15.10
2022-09-03T03:08:51.086Z,15.00
2022-09-03T03:11:19.917Z,15.00
2022-09-03T03:13:47.332Z,15.00
2022-09-03T03:16:17.051Z,14.90
2022-09-03T03:18:48.015Z,14.90
2022-09-03T03:21:18.305Z,14.90
2022-09-03T03:23:45.907Z,14.90
2022-09-03T03:26:15.862Z,14.80
2022-09-03T03:28:43.041Z,14.80
2022-09-03T03:31:21.373Z,14.80
2022-09-03T03:33:53.433Z,14.80
2022-09-03T03:36:21.246Z,14.80
2022-09-03T03:38:49.084Z,14.80
2022-09-03T03:41:24.405Z,14.70
2022-09-03T03:44:00.366Z,14.80
2022-09-03T03:46:34.530Z,14.70
2022-09-03T03:49:01.875Z,14.70
2022-09-03T03:51:30.777Z,14.70
2022-09-03T03:54:02.106Z,14.70
2022-09-03T03:56:32.330Z,14.70
2022-09-03T03:59:00.311Z,14.70
2022-09-03T04:01:29.131Z,14.70
2022-09-03T04:03:57.695Z,14.70
2022-09-03T04:06:25.078Z,14.60
2022-09-03T04:08:52.404Z,14.60
2022-09-03T04:11:22.656Z,14.60
2022-09-03T04:13:51.278Z,14.60
2022-09-03T04:16:27.280Z,14.60
2022-09-03T04:18:56.217Z,14.60
2022-09-03T04:21:26.562Z,14.50
2022-09-03T04:23:56.748Z,14.50
2022-09-03T04:26:33.256Z,14.50
2022-09-03T04:29:02.584Z,14.50
2022-09-03T04:31:30.552Z,14.40
2022-09-03T04:33:59.008Z,14.40
2022-09-03T04:36:28.637Z,14.40
2022-09-03T04:38:58.748Z,14.40
2022-09-03T04:41:28.210Z,14.40
2022-09-03T04:43:57.218Z,14.30
2022-09-03T04:46:34.110Z,14.30
2022-09-03T04:49:02.648Z,14.30
2022-09-03T04:51:30.454Z,14.20
2022-09-03T04:54:01.517Z,14.20
2022-09-03T04:56:31.257Z,14.20
2022-09-03T04:59:03.944Z,14.20
2022-09-03T05:01:33.276Z,14.20
2022-09-03T05:04:01.727Z,14.20
2022-09-03T05:06:31.226Z,14.20
2022-09-03T05:08:58.830Z,14.20
2022-09-03T05:11:28.068Z,14.20
2022-09-03T05:13:57.228Z,14.20
2022-09-03T05:16:26.256Z,14.20
2022-09-03T05:18:54.896Z,14.20
2022-09-03T05:21:22.891Z,14.10
2022-09-03T05:23:51.517Z,14.10
2022-09-03T05:26:24.722Z,14.10
2022-09-03T05:28:57.430Z,14.10
2022-09-03T05:31:28.379Z,14.10
2022-09-03T05:34:00.892Z,14.10
2022-09-03T05:36:31.333Z,14.30
2022-09-03T05:38:59.762Z,14.60
2022-09-03T05:41:28.465Z,15.00
2022-09-03T05:43:59.665Z,15.50
2022-09-03T05:46:32.910Z,16.20
2022-09-03T05:49:02.372Z,16.60
2022-09-03T05:51:30.625Z,16.90
2022-09-03T05:53:58.952Z,17.10
2022-09-03T05:56:28.689Z,17.30
2022-09-03T05:58:59.784Z,17.30
2022-09-03T06:01:31.280Z,17.20
2022-09-03T06:04:00.986Z,17.00
2022-09-03T06:06:29.802Z,17.10
2022-09-03T06:08:59.751Z,17.20
2022-09-03T06:11:30.771Z,17.40
2022-09-03T06:14:01.608Z,17.40
2022-09-03T06:16:31.889Z,17.50
2022-09-03T06:19:00.978Z,17.70
2022-09-03T06:21:29.024Z,17.90
2022-09-03T06:23:59.736Z,18.00
2022-09-03T06:26:28.932Z,18.10
2022-09-03T06:28:57.525Z,18.10
2022-09-03T06:31:25.989Z,18.20
2022-09-03T06:33:54.930Z,18.10
2022-09-03T06:36:24.077Z,18.30
2022-09-03T06:38:58.836Z,18.40
2022-09-03T06:41:30.253Z,18.40
2022-09-03T06:44:03.637Z,18.20
2022-09-03T06:46:33.211Z,18.10
2022-09-03T06:49:00.973Z,17.90
2022-09-03T06:51:30.540Z,17.80
2022-09-03T06:54:12.300Z,17.70
2022-09-03T06:56:41.611Z,17.50
2022-09-03T06:59:13.996Z,17.40
2022-09-03T07:01:44.578Z,17.30
2022-09-03T07:04:13.357Z,17.20
2022-09-03T07:06:42.976Z,17.30
2022-09-03T07:09:11.978Z,17.20
2022-09-03T07:11:47.744Z,17.10
2022-09-03T07:14:22.467Z,17.00
2022-09-03T07:16:50.608Z,17.00
2022-09-03T07:19:19.013Z,17.00
2022-09-03T07:21:50.482Z,17.00
2022-09-03T07:24:19.993Z,17.00
2022-09-03T07:26:49.073Z,17.00
2022-09-03T07:29:21.175Z,17.00
2022-09-03T07:31:52.416Z,17.00
2022-09-03T07:34:22.228Z,17.00
2022-09-03T07:36:51.849Z,17.00
2022-09-03T07:39:19.726Z,17.00
2022-09-03T07:41:47.543Z,17.00
2022-09-03T07:44:19.921Z,17.00
2022-09-03T07:46:50.603Z,17.00
2022-09-03T07:49:18.870Z,17.10
2022-09-03T07:51:46.822Z,17.10
2022-09-03T07:54:14.527Z,17.10
2022-09-03T07:56:41.908Z,17.20
2022-09-03T07:59:09.665Z,17.20
2022-09-03T08:01:41.714Z,17.20
2022-09-03T08:04:10.132Z,17.30
2022-09-03T08:06:40.805Z,17.30
2022-09-03T08:09:11.766Z,17.40
2022-09-03T08:11:41.400Z,17.40
2022-09-03T08:14:11.182Z,17.40
2022-09-03T08:16:46.577Z,17.40
2022-09-03T08:19:14.377Z,17.50
2022-09-03T08:21:42.576Z,17.50
2022-09-03T08:24:15.167Z,17.60
2022-09-03T08:26:46.498Z,17.60
2022-09-03T08:29:17.796Z,17.70
2022-09-03T08:31:45.235Z,17.80
2022-09-03T08:34:17.986Z,17.90
2022-09-03T08:36:47.410Z,18.00
2022-09-03T08:39:15.070Z,18.10
2022-09-03T08:41:51.158Z,18.20
2022-09-03T08:44:24.447Z,18.20
2022-09-03T08:47:06.765Z,18.30
2022-09-03T08:50:09.521Z,18.40
2022-09-03T08:52:58.828Z,18.50
2022-09-03T08:55:45.085Z,18.50
2022-09-03T08:58:15.731Z,18.50
2022-09-03T09:00:42.879Z,18.60
2022-09-03T09:03:38.255Z,18.60
2022-09-03T09:06:12.971Z,18.70
2022-09-03T09:08:42.975Z,18.80
2022-09-03T09:11:25.371Z,18.80
2022-09-03T09:14:00.543Z,18.90
2022-09-03T09:16:48.354Z,19.00
2022-09-03T09:19:18.527Z,19.00
2022-09-03T09:22:01.879Z,19.10
2022-09-03T09:24:40.009Z,19.20
2022-09-03T09:27:07.552Z,19.20
2022-09-03T09:29:37.792Z,19.20
2022-09-03T09:32:07.677Z,19.30
2022-09-03T09:34:39.551Z,19.40
2022-09-03T09:37:11.253Z,19.40
2022-09-03T09:39:39.238Z,19.50
2022-09-03T09:42:10.241Z,19.60
2022-09-03T09:44:39.278Z,19.60
2022-09-03T09:47:13.386Z,19.70
2022-09-03T09:50:00.747Z,19.90
2022-09-03T09:52:29.844Z,20.10
2022-09-03T09:55:10.272Z,20.20
2022-09-03T09:57:39.131Z,20.30
2022-09-03T10:00:17.244Z,20.60
2022-09-03T10:03:14.148Z,21.00
2022-09-03T10:05:45.128Z,21.40
2022-09-03T10:08:22.687Z,21.80
2022-09-03T10:10:53.242Z,22.10
2022-09-03T10:13:26.958Z,22.40
2022-09-03T10:16:27.074Z,22.50
2022-09-03T10:19:19.804Z,22.60
2022-09-03T10:22:10.466Z,22.60
2022-09-03T10:24:58.489Z,22.50
2022-09-03T10:27:32.119Z,22.30
2022-09-03T10:30:01.046Z,22.20
2022-09-03T10:33:16.516Z,22.10
2022-09-03T10:36:26.796Z,22.10
2022-09-03T10:39:09.175Z,22.00
2022-09-03T10:42:15.486Z,21.90
2022-09-03T10:45:14.398Z,22.00
2022-09-03T10:48:14.475Z,21.90
2022-09-03T10:50:54.654Z,22.00
2022-09-03T10:53:56.362Z,22.10
2022-09-03T10:57:38.200Z,22.00
2022-09-03T11:00:19.340Z,22.00
2022-09-03T11:02:55.809Z,22.00
2022-09-03T11:05:33.153Z,22.00
2022-09-03T11:08:25.830Z,22.00
2022-09-03T11:10:57.539Z,22.20
2022-09-03T11:13:38.098Z,22.30
2022-09-03T11:16:29.393Z,22.50
2022-09-03T11:19:16.106Z,22.60
2022-09-03T11:21:46.808Z,22.50
2022-09-03T11:24:23.172Z,22.40
2022-09-03T11:27:27.811Z,22.40
2022-09-03T11:30:10.828Z,22.60
2022-09-03T11:33:01.019Z,22.60
2022-09-03T11:35:55.089Z,22.60
2022-09-03T11:38:29.300Z,22.50
2022-09-03T11:41:16.025Z,22.60
2022-09-03T11:43:44.650Z,22.80
2022-09-03T11:46:50.523Z,23.00
2022-09-03T11:49:32.549Z,23.20
2022-09-03T11:52:06.717Z,23.30
2022-09-03T11:54:44.839Z,23.20
2022-09-03T11:57:39.942Z,23.10
2022-09-03T12:01:14.981Z,23.00
2022-09-03T12:03:54.660Z,23.10
2022-09-03T12:07:09.958Z,23.30
2022-09-03T12:17:39.506Z,23.10
2022-09-03T12:20:15.616Z,23.10
2022-09-03T12:22:46.003Z,23.00
2022-09-03T12:25:15.655Z,22.90
2022-09-03T12:27:53.997Z,22.80
2022-09-03T12:30:25.139Z,22.80
2022-09-03T12:33:04.050Z,22.70
2022-09-03T12:38:25.419Z,23.00
2022-09-03T12:43:42.390Z,22.70
2022-09-03T12:46:16.300Z,22.60
2022-09-03T12:52:08.537Z,22.70
2022-09-03T12:54:53.711Z,22.80
2022-09-03T12:57:32.290Z,22.70
2022-09-03T13:00:06.455Z,22.60
2022-09-03T13:02:46.609Z,22.70
2022-09-03T13:05:19.093Z,22.70
2022-09-03T13:07:53.263Z,22.70
2022-09-03T13:10:32.654Z,22.70
2022-09-03T13:13:24.357Z,22.90
2022-09-03T13:16:04.184Z,23.00
2022-09-03T13:18:54.678Z,23.20
2022-09-03T13:21:28.524Z,23.30
2022-09-03T13:24:01.146Z,23.40
2022-09-03T13:26:53.622Z,23.40
2022-09-03T13:29:45.954Z,23.50
2022-09-03T13:32:54.888Z,23.50
2022-09-03T13:35:38.884Z,23.60
2022-09-03T13:38:41.660Z,23.60
2022-09-03T13:41:20.671Z,23.60
2022-09-03T13:44:10.825Z,23.40
2022-09-03T13:46:59.414Z,23.20
2022-09-03T13:50:23.228Z,23.00
2022-09-03T13:53:26.062Z,22.90
2022-09-03T13:56:05.463Z,22.80
2022-09-03T13:58:47.043Z,22.70
2022-09-03T14:01:39.003Z,22.60
2022-09-03T14:04:18.306Z,22.50
2022-09-03T14:07:35.085Z,22.70
2022-09-03T14:10:14.635Z,22.80
2022-09-03T14:13:04.518Z,23.10
2022-09-03T14:15:48.805Z,23.20
2022-09-03T14:18:31.428Z,23.40
2022-09-03T14:21:21.248Z,23.50
2022-09-03T14:24:10.843Z,23.50
2022-09-03T14:26:49.297Z,23.50
2022-09-03T14:29:18.346Z,23.50
2022-09-03T14:31:57.872Z,23.60
2022-09-03T14:34:40.254Z,23.50
2022-09-03T14:37:13.738Z,23.50
2022-09-03T14:40:09.192Z,23.30
2022-09-03T14:43:08.163Z,23.10
2022-09-03T14:46:00.188Z,23.00
2022-09-03T14:48:51.173Z,22.90
2022-09-03T14:51:42.994Z,22.80
2022-09-03T14:54:56.205Z,22.70
2022-09-03T14:57:51.192Z,22.80
2022-09-03T15:00:37.326Z,22.80
2022-09-03T15:03:26.293Z,22.80
2022-09-03T15:06:02.418Z,22.80
2022-09-03T15:08:35.462Z,22.90
2022-09-03T15:11:11.166Z,22.90
2022-09-03T15:13:52.186Z,23.00
2022-09-03T15:16:28.470Z,23.10
2022-09-03T15:19:12.189Z,23.20
2022-09-03T15:21:42.123Z,23.20
2022-09-03T15:24:32.924Z,23.20
2022-09-03T15:27:25.113Z,23.20
2022-09-03T15:30:20.605Z,23.00
2022-09-03T15:33:05.870Z,22.90
2022-09-03T15:35:33.874Z,22.70
2022-09-03T15:38:29.127Z,22.60
2022-09-03T15:41:00.203Z,22.60
2022-09-03T15:43:33.686Z,22.50
2022-09-03T15:46:14.051Z,22.40
2022-09-03T15:48:47.948Z,22.40
2022-09-03T15:51:28.793Z,22.40
2022-09-03T15:54:19.661Z,22.30
2022-09-03T15:57:10.161Z,22.30
2022-09-03T16:00:09.699Z,22.20
2022-09-03T16:03:06.629Z,22.20
2022-09-03T16:06:06.862Z,22.10
2022-09-03T16:12:42.297Z,22.20
2022-09-03T16:15:18.242Z,22.30
2022-09-03T16:17:58.133Z,22.30
2022-09-03T16:20:44.349Z,22.30
2022-09-03T16:23:25.889Z,22.20
2022-09-03T16:26:08.949Z,22.10
2022-09-03T16:29:16.719Z,22.10
2022-09-03T16:31:56.343Z,22.00
2022-09-03T16:35:13.314Z,21.90
2022-09-03T16:38:20.335Z,21.90
2022-09-03T16:41:14.371Z,21.80
2022-09-03T16:43:58.269Z,21.80
2022-09-03T16:46:53.992Z,21.80
2022-09-03T16:49:47.322Z,21.70
2022-09-03T16:52:54.372Z,21.70
2022-09-03T16:55:29.160Z,21.60
2022-09-03T16:58:22.333Z,21.60
2022-09-03T17:01:06.681Z,21.50
2022-09-03T17:03:55.398Z,21.50
2022-09-03T17:07:01.925Z,21.40
2022-09-03T17:09:28.987Z,21.40
2022-09-03T17:12:04.874Z,21.30
2022-09-03T17:15:07.200Z,21.20
2022-09-03T17:18:00.759Z,21.10
2022-09-03T17:20:49.282Z,21.00
2022-09-03T17:23:43.959Z,21.00
2022-09-03T17:26:50.462Z,20.90
2022-09-03T17:29:18.338Z,20.80
2022-09-03T17:32:12.252Z,20.80
2022-09-03T17:34:54.547Z,20.70
2022-09-03T17:37:46.455Z,20.70
2022-09-03T17:40:51.396Z,20.60
2022-09-03T17:43:45.263Z,20.50
2022-09-03T17:46:47.322Z,20.50
2022-09-03T17:49:29.802Z,20.40
2022-09-03T17:52:09.960Z,20.30
2022-09-03T17:54:43.354Z,20.20
2022-09-03T17:57:31.518Z,20.20
2022-09-03T18:00:37.807Z,20.10
2022-09-03T18:03:52.908Z,20.10
2022-09-03T18:06:32.512Z,20.00
2022-09-03T18:09:38.142Z,19.90
2022-09-03T18:12:14.897Z,19.80
2022-09-03T18:14:52.413Z,19.80
2022-09-03T18:18:06.814Z,19.80
2022-09-03T18:21:24.015Z,19.70
2022-09-03T18:24:51.004Z,19.70
2022-09-03T18:28:01.395Z,19.50
2022-09-03T18:30:56.333Z,19.50
2022-09-03T18:33:48.005Z,19.40
2022-09-03T18:36:48.881Z,19.30
2022-09-03T18:39:50.749Z,19.30
2022-09-03T18:43:14.591Z,19.30
2022-09-03T18:47:56.303Z,19.10
2022-09-03T18:57:15.002Z,18.90
2022-09-03T19:00:18.529Z,18.90
2022-09-03T19:03:19.332Z,18.80
2022-09-03T19:06:21.864Z,18.80
2022-09-03T19:09:34.167Z,18.70
2022-09-03T19:12:31.881Z,18.70
2022-09-03T19:15:33.181Z,18.60
2022-09-03T19:18:55.955Z,18.50
2022-09-03T19:21:47.460Z,18.50
2022-09-03T19:24:33.288Z,18.40
2022-09-03T19:27:50.130Z,18.30
2022-09-03T19:31:00.030Z,18.30
2022-09-03T19:34:20.293Z,18.20
2022-09-03T19:37:42.576Z,18.10
2022-09-03T19:40:59.101Z,18.00
2022-09-03T19:44:34.350Z,18.00
2022-09-03T19:47:24.054Z,17.90
2022-09-03T19:50:51.374Z,17.80
2022-09-03T19:53:40.612Z,17.80
2022-09-03T19:56:33.836Z,17.70
2022-09-03T19:59:42.538Z,17.70
2022-09-03T20:02:46.672Z,17.70
2022-09-03T20:05:47.547Z,17.50
2022-09-03T20:08:46.534Z,17.50
2022-09-03T20:14:45.165Z,17.40
2022-09-03T20:17:40.859Z,17.30
2022-09-03T20:20:30.177Z,17.20
2022-09-03T20:23:12.332Z,17.20
2022-09-03T20:26:12.827Z,17.10
2022-09-03T20:28:49.136Z,17.20
2022-09-03T20:31:30.776Z,17.00
2022-09-03T20:34:10.177Z,17.00
2022-09-03T20:37:14.313Z,17.00
2022-09-03T20:39:44.700Z,16.90
2022-09-03T20:42:42.742Z,16.80
2022-09-03T20:45:25.640Z,16.80
2022-09-03T20:48:23.999Z,16.70
2022-09-03T20:51:17.213Z,16.60
2022-09-03T20:54:04.000Z,16.70
2022-09-03T20:56:37.678Z,16.60
2022-09-03T20:59:12.943Z,16.60
2022-09-03T21:02:03.757Z,16.50
2022-09-03T21:04:56.730Z,16.50
2022-09-03T21:07:40.477Z,16.50
2022-09-03T21:10:48.745Z,16.40
2022-09-03T21:14:16.445Z,16.40
2022-09-03T21:17:08.237Z,16.40
2022-09-03T21:20:01.319Z,16.30
2022-09-03T21:23:13.180Z,16.30
2022-09-03T21:26:04.718Z,16.30
2022-09-03T21:28:58.800Z,16.30
2022-09-03T21:31:55.171Z,16.20
2022-09-03T21:34:31.007Z,16.20
2022-09-03T21:37:07.164Z,16.10
2022-09-03T21:39:51.150Z,16.20
2022-09-03T21:43:00.164Z,16.20
2022-09-03T21:46:12.485Z,16.20
2022-09-03T21:49:01.675Z,16.10
2022-09-03T21:52:07.079Z,16.10
2022-09-03T21:58:26.835Z,16.00
2022-09-03T22:01:02.330Z,16.00
2022-09-03T22:03:29.906Z,16.00
2022-09-03T22:06:03.058Z,16.00
2022-09-03T22:08:52.899Z,16.00
2022-09-03T22:11:35.759Z,16.00
2022-09-03T22:14:28.587Z,16.00
2022-09-03T22:17:35.904Z,16.00
2022-09-03T22:20:06.030Z,16.00
2022-09-03T22:22:50.660Z,16.00
2022-09-03T22:26:09.491Z,15.90
2022-09-03T22:29:15.826Z,16.00
2022-09-03T22:32:16.222Z,15.90
2022-09-03T22:35:25.889Z,16.00
2022-09-03T22:38:18.289Z,16.00
2022-09-03T22:40:52.421Z,15.90
2022-09-03T22:43:42.289Z,15.90
2022-09-03T22:46:15.408Z,15.90
2022-09-03T22:49:01.287Z,15.90
2022-09-03T22:51:37.213Z,15.90
2022-09-03T22:54:59.027Z,15.90
2022-09-03T22:57:52.637Z,15.90
2022-09-03T23:03:21.157Z,15.80
2022-09-03T23:06:11.221Z,15.80
2022-09-03T23:08:47.957Z,15.80
2022-09-03T23:11:32.003Z,15.70
2022-09-03T23:14:12.689Z,15.70
2022-09-03T23:17:14.811Z,15.60
2022-09-03T23:19:50.892Z,15.60
2022-09-03T23:22:54.307Z,15.60
2022-09-03T23:25:42.432Z,15.60
2022-09-03T23:28:19.649Z,15.60
2022-09-03T23:31:06.457Z,15.50
2022-09-03T23:33:33.876Z,15.50
2022-09-03T23:36:55.107Z,15.50
2022-09-03T23:39:52.497Z,15.50
2022-09-03T23:42:48.738Z,15.50
2022-09-03T23:45:47.200Z,15.50
2022-09-03T23:48:46.087Z,15.50
2022-09-03T23:51:29.134Z,15.50
2022-09-03T23:54:31.848Z,15.50
2022-09-03T23:57:33.993Z,15.40
